Time;durP1;ratioP1;P1;durP2;ratioP2;P2;SDS_P1;SDS_P2;PMS_P1;PMS_P2;Temp;Humidity;BMP_temperature;BMP_pressure;BME280_temperature;BME280_humidity;BME280_pressure;Samples;Min_cycle;Max_cycle;Signal;HPM_P1;HPM_P2
2021/12/21 00:01:28;;;;;;;1.38;1.10;;;;;;;-14.05;63.41;98174.50;4993949;28;20062;-65
2021/12/21 00:03:55;;;;;;;0.82;0.82;;;;;;;-14.07;64.66;98181.94;4994420;28;20046;-65
2021/12/21 00:06:22;;;;;;;0.80;0.80;;;;;;;-14.02;63.68;98182.94;4988797;28;20057;-65
2021/12/21 00:08:49;;;;;;;5.03;1.58;;;;;;;-14.09;64.62;98168.78;4994037;28;20100;-66
2021/12/21 00:11:17;;;;;;;0.77;0.77;;;;;;;-14.07;64.74;98185.41;4993692;28;20417;-65
2021/12/21 00:16:27;;;;;;;0.85;0.82;;;;;;;-13.94;64.63;98187.22;4993584;28;20054;-68
2021/12/21 00:21:40;;;;;;;2.00;1.55;;;;;;;-14.02;64.58;98180.25;4993197;28;20025;-66
2021/12/21 00:24:19;;;;;;;0.88;0.88;;;;;;;-13.98;64.25;98181.47;4993576;28;20050;-66
2021/12/21 00:26:46;;;;;;;1.80;1.30;;;;;;;-13.98;63.78;98184.16;4991650;28;20057;-66
2021/12/21 00:29:13;;;;;;;2.88;1.20;;;;;;;-13.83;64.18;98181.22;4993986;28;20494;-66
2021/12/21 00:31:40;;;;;;;2.53;1.27;;;;;;;-13.87;63.54;98186.16;4993281;28;20061;-66
2021/12/21 00:34:07;;;;;;;2.25;1.60;;;;;;;-13.79;64.64;98183.25;4993610;28;20074;-66
2021/12/21 00:36:37;;;;;;;0.88;0.80;;;;;;;-13.74;63.12;98182.63;4993214;28;20054;-66
2021/12/21 00:39:11;;;;;;;1.50;1.27;;;;;;;-13.95;63.80;98177.56;4993383;28;20050;-66
2021/12/21 00:41:38;;;;;;;2.75;1.50;;;;;;;-13.83;63.77;98179.34;4991203;28;20043;-66
2021/12/21 00:44:06;;;;;;;1.55;0.90;;;;;;;-13.76;63.71;98182.84;4992280;28;20126;-67
2021/12/21 00:46:33;;;;;;;2.90;1.60;;;;;;;-13.80;63.53;98178.94;4993200;28;20065;-65
2021/12/21 00:49:12;;;;;;;2.47;1.50;;;;;;;-13.99;63.24;98179.84;4993225;28;20050;-65
2021/12/21 00:51:41;;;;;;;2.53;1.47;;;;;;;-14.10;64.20;98183.16;4993099;28;20506;-66
2021/12/21 00:54:08;;;;;;;3.65;1.88;;;;;;;-14.03;64.11;98189.31;4993580;28;20129;-66
2021/12/21 00:56:35;;;;;;;3.08;1.13;;;;;;;-13.93;63.45;98202.22;4993215;28;20054;-65
2021/12/21 00:59:03;;;;;;;1.85;1.42;;;;;;;-13.87;63.64;98196.84;4993251;28;20457;-66
2021/12/21 01:01:35;;;;;;;1.80;1.45;;;;;;;-13.91;63.12;98197.47;4992667;28;20065;-66
2021/12/21 01:04:07;;;;;;;1.10;1.00;;;;;;;-14.00;62.81;98186.22;4992315;28;20082;-65
2021/12/21 01:06:42;;;;;;;2.90;2.05;;;;;;;-14.10;63.15;98188.50;4992520;28;20058;-66
2021/12/21 01:11:47;;;;;;;1.02;0.98;;;;;;;-14.09;62.92;98203.50;4993340;28;20572;-59
2021/12/21 01:19:44;;;;;;;2.05;1.38;;;;;;;-14.05;63.33;98196.72;4992986;28;20385;-62
2021/12/21 01:22:19;;;;;;;5.15;1.52;;;;;;;-14.02;62.79;98206.16;4990045;28;20054;-61
2021/12/21 01:25:11;;;;;;;1.00;0.80;;;;;;;-13.90;62.86;98210.63;4992202;28;20454;-60
2021/12/21 01:30:23;;;;;;;0.85;0.80;;;;;;;-13.95;62.79;98212.31;4990969;28;20050;-61
2021/12/21 01:35:29;;;;;;;0.73;0.73;;;;;;;-14.02;62.83;98220.34;4991747;28;20049;-60
2021/12/21 01:38:06;;;;;;;1.25;1.15;;;;;;;-14.10;62.51;98207.19;4992555;28;20592;-61
2021/12/21 01:40:44;;;;;;;1.88;1.33;;;;;;;-14.17;62.67;98206.41;4988132;28;20067;-59
2021/12/21 01:51:11;;;;;;;4.05;1.58;;;;;;;-14.24;62.44;98212.81;4992662;28;20046;-60
2021/12/21 01:53:39;;;;;;;5.18;1.55;;;;;;;-14.16;62.17;98207.19;4992025;28;20058;-66
2021/12/21 01:56:07;;;;;;;2.80;1.67;;;;;;;-14.28;62.48;98217.75;4992675;28;20058;-66
2021/12/21 01:58:37;;;;;;;3.13;1.60;;;;;;;-14.25;62.57;98224.50;4990561;28;20086;-66
2021/12/21 02:01:06;;;;;;;1.90;1.10;;;;;;;-14.18;62.76;98217.28;4990789;28;20058;-65
2021/12/21 02:03:33;;;;;;;5.13;2.03;;;;;;;-14.24;62.49;98213.63;4990135;28;20053;-67
2021/12/21 02:06:01;;;;;;;0.77;0.77;;;;;;;-14.20;62.22;98217.50;4992776;28;20061;-67
2021/12/21 02:08:28;;;;;;;2.40;1.83;;;;;;;-14.15;62.34;98228.34;4991957;28;20046;-65
2021/12/21 02:11:00;;;;;;;2.40;1.63;;;;;;;-14.06;62.72;98223.63;4992404;28;20085;-65
2021/12/21 02:13:32;;;;;;;1.17;0.88;;;;;;;-14.10;62.17;98220.53;4991925;28;20062;-65
2021/12/21 02:16:00;;;;;;;3.28;1.83;;;;;;;-14.09;62.90;98210.69;4991620;28;20054;-65
2021/12/21 02:20:59;;;;;;;5.13;1.65;;;;;;;-14.18;62.49;98228.78;4996187;28;20054;-65
2021/12/21 02:23:36;;;;;;;2.40;1.23;;;;;;;-14.17;62.55;98237.63;4995482;28;20057;-68
2021/12/21 02:30:58;;;;;;;1.63;1.20;;;;;;;-14.18;62.24;98236.78;4996047;28;20046;-66
2021/12/21 02:33:26;;;;;;;1.92;1.23;;;;;;;-14.25;63.12;98244.03;4995407;28;20055;-65
2021/12/21 02:35:55;;;;;;;1.48;1.20;;;;;;;-14.35;62.11;98245.47;4994695;28;20129;-66
2021/12/21 02:38:22;;;;;;;2.67;1.55;;;;;;;-14.33;62.34;98244.22;4995649;28;20061;-67
2021/12/21 02:40:49;;;;;;;2.30;1.73;;;;;;;-14.20;62.51;98246.88;4992531;28;20104;-66
2021/12/21 02:43:16;;;;;;;1.23;1.10;;;;;;;-14.27;62.28;98256.75;4995294;28;20061;-66
2021/12/21 02:45:43;;;;;;;2.15;1.38;;;;;;;-14.31;61.97;98255.53;4991863;28;20065;-65
2021/12/21 02:48:10;;;;;;;0.93;0.90;;;;;;;-14.26;61.79;98258.41;4995082;28;20057;-66
2021/12/21 02:50:39;;;;;;;6.18;1.83;;;;;;;-14.41;61.89;98260.50;4994411;28;20054;-66
2021/12/21 02:53:08;;;;;;;1.13;1.02;;;;;;;-14.46;62.20;98262.13;4995189;28;20139;-66
2021/12/21 02:55:36;;;;;;;0.98;0.88;;;;;;;-14.44;62.45;98265.41;4994161;28;20125;-66
2021/12/21 02:58:04;;;;;;;2.67;1.52;;;;;;;-14.38;62.78;98268.09;4995292;28;20641;-66
2021/12/21 03:00:32;;;;;;;1.48;1.15;;;;;;;-14.28;62.35;98267.63;4994839;28;20057;-65
2021/12/21 03:03:06;;;;;;;2.67;1.30;;;;;;;-14.33;62.26;98257.59;4995738;28;20058;-65
2021/12/21 03:05:35;;;;;;;1.83;1.55;;;;;;;-14.34;62.46;98263.13;4992767;28;20464;-66
2021/12/21 03:08:23;;;;;;;1.83;1.42;;;;;;;-14.36;61.66;98271.34;4995226;28;20057;-67
2021/12/21 03:11:07;;;;;;;2.20;1.42;;;;;;;-14.40;61.56;98269.28;4995041;28;20093;-65
2021/12/21 03:16:20;;;;;;;1.60;1.23;;;;;;;-14.32;61.62;98282.44;4987780;28;20054;-66
2021/12/21 03:18:47;;;;;;;2.60;1.60;;;;;;;-14.33;62.00;98268.25;4994333;28;20136;-65
2021/12/21 03:21:14;;;;;;;0.93;0.93;;;;;;;-14.28;61.68;98278.31;4994821;28;20505;-66
2021/12/21 03:23:41;;;;;;;1.58;1.15;;;;;;;-14.38;61.47;98286.78;4994492;28;20057;-66
2021/12/21 03:26:08;;;;;;;1.77;1.48;;;;;;;-14.37;61.69;98291.06;4993893;28;20054;-65
2021/12/21 03:28:35;;;;;;;1.55;1.10;;;;;;;-14.47;61.70;98287.16;4990506;28;20078;-66
2021/12/21 03:31:02;;;;;;;1.35;1.15;;;;;;;-14.50;62.21;98299.09;4994841;28;20054;-65
2021/12/21 03:33:29;;;;;;;2.17;1.70;;;;;;;-14.51;62.04;98289.41;4994317;28;20056;-65
2021/12/21 03:35:56;;;;;;;6.85;1.20;;;;;;;-14.52;61.68;98293.13;4994818;28;20449;-67
2021/12/21 03:38:23;;;;;;;1.85;1.33;;;;;;;-14.64;61.61;98285.94;4994356;28;20536;-67
2021/12/21 03:40:50;;;;;;;1.65;1.17;;;;;;;-14.71;61.56;98296.63;4992585;28;20056;-67
2021/12/21 03:43:17;;;;;;;1.90;1.45;;;;;;;-14.73;61.43;98298.66;4994808;28;20057;-67
2021/12/21 03:45:54;;;;;;;2.75;1.55;;;;;;;-14.68;61.28;98301.53;4992366;28;20145;-65
2021/12/21 03:48:21;;;;;;;2.75;1.90;;;;;;;-14.65;61.94;98295.81;4994205;28;20074;-66
2021/12/21 03:50:48;;;;;;;2.17;1.38;;;;;;;-14.54;61.72;98300.50;4993344;28;20046;-66
2021/12/21 03:53:15;;;;;;;0.88;0.88;;;;;;;-14.45;61.62;98290.47;4994771;28;20108;-66
2021/12/21 03:55:42;;;;;;;0.77;0.77;;;;;;;-14.65;60.81;98284.28;4994026;28;20073;-67
2021/12/21 03:58:09;;;;;;;2.60;1.75;;;;;;;-14.81;61.38;98282.84;4994387;28;20077;-66
2021/12/21 04:00:36;;;;;;;2.13;1.40;;;;;;;-14.83;61.81;98292.06;4993963;28;20050;-66
2021/12/21 04:03:03;;;;;;;3.13;1.48;;;;;;;-14.73;62.04;98304.00;4994131;28;20054;-66
2021/12/21 04:05:30;;;;;;;1.00;0.90;;;;;;;-14.62;62.14;98297.22;4993770;28;20212;-65
2021/12/21 04:07:57;;;;;;;3.92;2.22;;;;;;;-14.54;62.05;98297.84;4992624;28;20112;-66
2021/12/21 04:10:24;;;;;;;4.63;1.58;;;;;;;-14.64;61.89;98289.44;4993735;28;20089;-65
2021/12/21 04:12:51;;;;;;;1.48;1.17;;;;;;;-14.68;62.08;98300.72;4993827;28;20082;-65
2021/12/21 04:15:23;;;;;;;1.33;1.10;;;;;;;-14.61;62.32;98305.03;4991301;28;20044;-66
2021/12/21 04:17:50;;;;;;;2.55;1.00;;;;;;;-14.60;62.16;98312.00;4992656;28;20054;-66
2021/12/21 04:20:17;;;;;;;1.70;1.30;;;;;;;-14.69;62.42;98313.22;4992285;28;20129;-67
2021/12/21 04:22:44;;;;;;;2.78;1.88;;;;;;;-14.66;62.39;98310.16;4990428;28;20499;-65
2021/12/21 04:25:12;;;;;;;1.17;0.80;;;;;;;-14.59;62.42;98319.00;4993680;28;20050;-68
2021/12/21 04:27:39;;;;;;;1.35;1.25;;;;;;;-14.49;62.25;98316.75;4990933;28;20058;-66
2021/12/21 04:30:06;;;;;;;1.92;1.00;;;;;;;-14.42;62.60;98309.53;4992357;28;20062;-67
2021/12/21 04:32:33;;;;;;;2.08;1.30;;;;;;;-14.47;62.25;98324.53;4991949;28;20054;-65
2021/12/21 04:35:00;;;;;;;3.42;2.05;;;;;;;-14.40;62.26;98315.50;4993539;28;20046;-67
2021/12/21 04:37:29;;;;;;;12.07;1.90;;;;;;;-14.48;61.96;98321.03;4993162;28;20050;-66
2021/12/21 04:40:03;;;;;;;1.23;1.02;;;;;;;-14.49;62.31;98318.56;4993500;28;20050;-65
2021/12/21 04:42:37;;;;;;;0.80;0.80;;;;;;;-14.54;62.04;98329.06;4992111;28;20152;-65
2021/12/21 04:45:04;;;;;;;1.05;0.95;;;;;;;-14.64;62.44;98324.13;4993206;28;20053;-64
2021/12/21 04:47:31;;;;;;;1.55;1.25;;;;;;;-14.58;62.34;98328.63;4993037;28;20077;-65
2021/12/21 04:49:59;;;;;;;1.98;1.70;;;;;;;-14.60;62.85;98325.34;4993475;28;20061;-57
2021/12/21 04:52:25;;;;;;;1.13;1.02;;;;;;;-14.61;62.34;98330.88;4993265;28;20146;-56
2021/12/21 04:54:54;;;;;;;4.53;1.92;;;;;;;-14.67;62.88;98329.84;4993431;28;20042;-54
2021/12/21 04:57:22;;;;;;;1.27;1.17;;;;;;;-14.60;62.47;98336.00;4992615;28;20073;-58
2021/12/21 04:59:49;;;;;;;2.55;1.30;;;;;;;-14.60;62.65;98338.69;4991804;28;20078;-56
2021/12/21 05:02:16;;;;;;;1.95;1.73;;;;;;;-14.63;62.44;98347.09;4989826;28;20138;-58
2021/12/21 05:04:43;;;;;;;3.22;1.88;;;;;;;-14.71;62.47;98339.31;4991731;28;20042;-55
2021/12/21 05:07:10;;;;;;;3.72;2.20;;;;;;;-14.67;62.16;98343.19;4993048;28;20046;-58
2021/12/21 05:09:42;;;;;;;1.98;1.45;;;;;;;-14.63;62.60;98339.09;4992723;28;20082;-56
2021/12/21 05:12:11;;;;;;;6.18;1.38;;;;;;;-14.61;62.63;98334.38;4992609;28;20398;-54
2021/12/21 05:14:38;;;;;;;1.10;0.98;;;;;;;-14.57;62.34;98350.81;4989942;28;20125;-56
2021/12/21 05:17:06;;;;;;;1.17;1.08;;;;;;;-14.61;62.12;98354.91;4990177;28;20065;-58
2021/12/21 05:19:33;;;;;;;1.38;1.20;;;;;;;-14.69;62.27;98347.91;4992505;28;20050;-56
2021/12/21 05:21:59;;;;;;;1.92;1.65;;;;;;;-14.69;62.35;98341.78;4992634;28;20077;-60
2021/12/21 05:24:26;;;;;;;1.20;1.10;;;;;;;-14.64;62.36;98349.97;4991002;28;20046;-57
2021/12/21 05:26:53;;;;;;;1.05;0.95;;;;;;;-14.69;62.65;98363.91;4992833;28;20054;-52
2021/12/21 05:29:20;;;;;;;2.40;1.73;;;;;;;-14.71;62.11;98355.31;4990399;28;20077;-56
2021/12/21 05:31:48;;;;;;;1.80;1.48;;;;;;;-14.73;62.14;98361.84;4992993;28;20043;-50
2021/12/21 05:34:15;;;;;;;2.55;1.60;;;;;;;-14.75;62.38;98359.38;4990814;28;20081;-57
2021/12/21 05:36:42;;;;;;;1.20;1.10;;;;;;;-14.81;62.08;98365.53;4993065;28;20042;-55
2021/12/21 05:39:17;;;;;;;1.52;1.27;;;;;;;-14.89;62.15;98373.75;4991921;28;20510;-56
2021/12/21 05:41:52;;;;;;;1.15;1.00;;;;;;;-14.85;61.80;98366.97;4992677;28;20074;-55
2021/12/21 05:44:24;;;;;;;3.55;1.60;;;;;;;-14.77;61.92;98376.63;4991840;28;20088;-54
2021/12/21 05:46:54;;;;;;;3.83;1.38;;;;;;;-14.63;61.79;98375.66;4992798;28;20086;-54
2021/12/21 05:49:22;;;;;;;1.35;1.25;;;;;;;-14.54;61.91;98366.44;4990233;28;20046;-66
2021/12/21 05:51:49;;;;;;;3.47;1.60;;;;;;;-14.59;61.94;98368.88;4993424;28;20469;-66
2021/12/21 05:54:18;;;;;;;2.22;1.58;;;;;;;-14.58;62.46;98371.34;4996150;28;20046;-66
2021/12/21 05:56:45;;;;;;;1.73;1.58;;;;;;;-14.62;62.34;98375.44;4996321;28;20047;-67
2021/12/21 05:59:12;;;;;;;1.83;1.42;;;;;;;-14.66;62.46;98390.19;4996130;28;20482;-67
2021/12/21 06:01:39;;;;;;;2.38;1.48;;;;;;;-14.61;61.95;98382.41;4996832;28;20050;-67
2021/12/21 06:04:07;;;;;;;1.20;1.10;;;;;;;-14.58;62.27;98383.84;4992457;28;20054;-65
2021/12/21 06:06:34;;;;;;;3.97;1.90;;;;;;;-14.52;62.32;98383.88;4995140;28;20046;-66
2021/12/21 06:09:06;;;;;;;1.95;1.58;;;;;;;-14.47;62.56;98388.59;4995725;28;20073;-65
2021/12/21 06:11:39;;;;;;;3.13;1.70;;;;;;;-14.44;62.65;98378.34;4996643;28;20144;-66
2021/12/21 06:22:51;;;;;;;3.50;1.85;;;;;;;-14.49;62.54;98401.31;4999357;28;20086;-55
2021/12/21 06:25:39;;;;;;;2.85;1.98;;;;;;;-14.59;61.81;98390.22;4995917;28;20046;-56
2021/12/21 06:28:08;;;;;;;2.53;2.15;;;;;;;-14.50;62.52;98394.34;4992285;28;20041;-60
2021/12/21 06:30:37;;;;;;;1.55;1.10;;;;;;;-14.56;62.56;98409.34;4994216;28;20050;-55
2021/12/21 06:33:07;;;;;;;4.45;2.15;;;;;;;-14.60;62.73;98415.28;4992743;28;20448;-57
2021/12/21 06:35:35;;;;;;;1.70;1.60;;;;;;;-14.48;62.06;98406.44;4994007;28;20046;-59
2021/12/21 06:38:02;;;;;;;5.45;1.83;;;;;;;-14.48;62.58;98406.44;4993449;28;20085;-56
2021/12/21 06:40:31;;;;;;;1.20;1.05;;;;;;;-14.42;62.49;98410.19;4995189;28;20093;-59
2021/12/21 06:43:01;;;;;;;2.22;1.50;;;;;;;-14.48;62.65;98417.13;4991041;28;20089;-58
2021/12/21 06:51:16;;;;;;;2.22;1.77;;;;;;;-14.35;62.15;98419.84;4990972;28;20050;-58
2021/12/21 06:53:49;;;;;;;0.85;0.82;;;;;;;-14.37;62.62;98421.88;4993403;28;20092;-58
2021/12/21 06:56:17;;;;;;;2.08;1.42;;;;;;;-14.41;62.75;98426.00;4992790;28;20069;-60
2021/12/21 06:58:45;;;;;;;1.30;1.10;;;;;;;-14.33;63.06;98431.13;4993447;28;20050;-59
2021/12/21 07:01:13;;;;;;;1.52;1.38;;;;;;;-14.41;62.38;98426.00;4991780;28;20042;-61
2021/12/21 07:03:41;;;;;;;2.95;1.70;;;;;;;-14.34;62.69;98431.31;4991576;28;20447;-59
2021/12/21 07:06:10;;;;;;;1.42;1.27;;;;;;;-14.32;62.70;98435.47;4992141;28;20502;-60
2021/12/21 07:08:47;;;;;;;1.40;1.30;;;;;;;-14.22;62.53;98424.31;4993034;28;20081;-60
2021/12/21 07:19:16;;;;;;;1.83;1.52;;;;;;;-14.00;62.22;98442.66;4991950;28;20146;-61
2021/12/21 07:21:43;;;;;;;2.20;1.73;;;;;;;-13.95;62.09;98442.03;4994794;28;20062;-59
2021/12/21 07:24:10;;;;;;;1.55;1.35;;;;;;;-13.95;63.32;98452.72;4992783;28;20056;-58
2021/12/21 07:26:37;;;;;;;2.13;1.63;;;;;;;-14.02;62.45;98444.72;4993455;28;20050;-60
2021/12/21 07:29:05;;;;;;;2.30;1.67;;;;;;;-14.02;62.48;98452.72;4992987;28;20132;-61
2021/12/21 07:31:32;;;;;;;2.15;1.75;;;;;;;-13.99;62.94;98444.28;4990182;28;20078;-60
2021/12/21 07:34:00;;;;;;;0.88;0.80;;;;;;;-13.99;62.76;98457.66;4994030;28;20078;-59
2021/12/21 07:36:30;;;;;;;2.38;1.50;;;;;;;-14.02;62.69;98460.72;4993606;28;20050;-58
2021/12/21 07:38:58;;;;;;;1.77;1.65;;;;;;;-14.10;62.83;98460.91;4990505;28;20049;-60
2021/12/21 07:41:26;;;;;;;2.45;1.88;;;;;;;-14.15;63.00;98458.03;4992939;28;20465;-59
2021/12/21 07:43:53;;;;;;;1.83;1.33;;;;;;;-14.11;62.72;98455.78;4991768;28;20061;-60
2021/12/21 07:46:20;;;;;;;0.80;0.80;;;;;;;-14.16;62.23;98456.38;4991498;28;20046;-62
2021/12/21 07:48:47;;;;;;;2.08;1.65;;;;;;;-14.26;62.13;98457.84;4992194;28;20557;-60
2021/12/21 07:51:14;;;;;;;3.65;1.80;;;;;;;-14.33;62.67;98463.16;4991118;28;20155;-61
2021/12/21 07:53:42;;;;;;;2.88;1.90;;;;;;;-14.26;62.39;98458.69;4993831;28;20141;-61
2021/12/21 07:56:09;;;;;;;0.93;0.73;;;;;;;-14.22;61.96;98470.56;4993157;28;20466;-61
2021/12/21 07:58:36;;;;;;;1.45;1.15;;;;;;;-14.42;61.78;98467.03;4991537;28;20076;-60
2021/12/21 08:01:05;;;;;;;1.25;1.15;;;;;;;-14.46;62.07;98463.13;4991840;28;20520;-61
2021/12/21 08:03:33;;;;;;;1.70;1.58;;;;;;;-14.37;62.37;98480.63;4991446;28;20058;-60
2021/12/21 08:06:03;;;;;;;1.40;1.00;;;;;;;-14.26;62.25;98476.53;4994269;28;20158;-58
2021/12/21 08:08:31;;;;;;;1.60;1.50;;;;;;;-14.31;62.27;98471.78;4992485;28;20060;-59
2021/12/21 08:13:38;;;;;;;0.80;0.80;;;;;;;-14.39;62.36;98493.34;4990435;28;20593;-60
2021/12/21 08:16:05;;;;;;;2.50;1.73;;;;;;;-14.41;62.28;98484.72;4991336;28;20514;-59
2021/12/21 08:18:33;;;;;;;2.03;1.35;;;;;;;-14.36;61.99;98476.09;4991411;28;20510;-56
2021/12/21 08:21:01;;;;;;;5.00;2.63;;;;;;;-14.25;62.25;98476.31;4993765;28;20054;-60
2021/12/21 08:23:28;;;;;;;2.88;1.67;;;;;;;-13.99;61.50;98481.69;4992137;28;20046;-61
2021/12/21 08:25:56;;;;;;;3.58;1.80;;;;;;;-13.81;61.88;98473.91;4992994;28;20528;-61
2021/12/21 08:28:24;;;;;;;2.20;1.77;;;;;;;-13.79;61.03;98474.53;4991858;28;20054;-60
2021/12/21 08:30:52;;;;;;;3.90;2.22;;;;;;;-13.70;61.67;98472.47;4993599;28;20120;-62
2021/12/21 08:33:22;;;;;;;3.53;2.08;;;;;;;-13.77;61.75;98466.31;4990253;28;20050;-60
2021/12/21 08:35:49;;;;;;;9.85;3.45;;;;;;;-13.61;61.11;98465.88;4984085;28;20069;-59
2021/12/21 08:38:18;;;;;;;3.05;2.25;;;;;;;-13.49;61.36;98463.41;4990063;28;20196;-60
2021/12/21 08:40:49;;;;;;;4.47;2.47;;;;;;;-13.44;61.44;98466.28;4992683;28;20050;-59
2021/12/21 08:43:19;;;;;;;2.30;1.80;;;;;;;-13.60;61.20;98470.19;4990277;28;20097;-57
2021/12/21 08:45:48;;;;;;;3.45;1.75;;;;;;;-13.66;62.14;98469.16;4992566;28;20085;-59
2021/12/21 08:48:16;;;;;;;4.90;1.95;;;;;;;-13.63;61.41;98468.75;4989932;28;20053;-59
2021/12/21 08:50:44;;;;;;;4.22;2.28;;;;;;;-13.50;61.92;98472.44;4991229;28;20073;-60
2021/12/21 08:53:13;;;;;;;3.60;2.38;;;;;;;-13.35;61.88;98473.06;4989786;28;20141;-57
2021/12/21 08:55:42;;;;;;;4.20;1.63;;;;;;;-13.34;61.90;98464.00;4992596;28;20421;-57
2021/12/21 08:58:10;;;;;;;11.52;2.13;;;;;;;-13.31;61.18;98476.94;4990201;28;20055;-61
2021/12/21 09:00:38;;;;;;;2.75;2.00;;;;;;;-13.27;61.64;98475.53;4992502;28;20409;-59
2021/12/21 09:03:05;;;;;;;1.98;1.35;;;;;;;-13.22;61.34;98470.34;4986820;28;20054;-59
2021/12/21 09:05:32;;;;;;;4.55;0.95;;;;;;;-13.22;60.52;98471.19;4990849;28;20517;-59
2021/12/21 09:08:04;;;;;;;3.13;1.95;;;;;;;-13.39;60.65;98471.84;4990870;28;20106;-55
2021/12/21 09:10:32;;;;;;;3.75;1.50;;;;;;;-13.42;60.01;98472.25;4992035;28;20050;-54
2021/12/21 09:13:00;;;;;;;1.75;1.27;;;;;;;-13.31;60.92;98484.97;4991173;28;20080;-55
2021/12/21 09:15:29;;;;;;;1.88;0.95;;;;;;;-13.33;60.81;98482.50;4991056;28;20054;-58
2021/12/21 09:17:57;;;;;;;4.50;2.42;;;;;;;-13.29;60.80;98477.56;4990805;28;20417;-58
2021/12/21 09:20:30;;;;;;;3.63;1.80;;;;;;;-13.14;59.54;98478.16;4988081;28;20038;-59
2021/12/21 09:22:57;;;;;;;4.85;2.75;;;;;;;-13.05;59.82;98477.75;4988955;28;20088;-55
2021/12/21 09:25:25;;;;;;;3.42;1.60;;;;;;;-13.12;60.14;98484.13;4989423;28;20069;-59
2021/12/21 09:27:53;;;;;;;2.58;1.83;;;;;;;-13.26;60.13;98485.19;4990679;28;20069;-58
2021/12/21 09:30:22;;;;;;;6.97;2.00;;;;;;;-13.36;59.48;98492.81;4990372;28;20053;-57
2021/12/21 09:32:51;;;;;;;1.73;1.60;;;;;;;-13.25;60.72;98486.81;4990173;28;20054;-58
2021/12/21 09:35:18;;;;;;;6.13;2.33;;;;;;;-13.12;59.75;98484.13;4989202;28;20056;-62
2021/12/21 09:37:46;;;;;;;1.35;1.20;;;;;;;-13.08;60.39;98493.38;4991565;28;20544;-57
2021/12/21 09:40:22;;;;;;;4.95;2.10;;;;;;;-13.20;59.31;98495.06;4991708;28;20052;-58
2021/12/21 09:42:50;;;;;;;4.47;2.17;;;;;;;-13.30;59.70;98490.13;4991395;28;20517;-59
2021/12/21 09:45:18;;;;;;;4.97;1.88;;;;;;;-13.26;59.92;98490.53;4989209;28;20503;-59
2021/12/21 09:47:45;;;;;;;3.00;1.92;;;;;;;-13.21;60.47;98498.75;4982911;28;20050;-57
2021/12/21 09:50:18;;;;;;;5.40;2.10;;;;;;;-13.15;59.30;98492.59;4988004;28;20050;-58
2021/12/21 09:52:46;;;;;;;4.63;2.20;;;;;;;-13.08;60.15;98488.88;4983380;28;20116;-59
2021/12/21 09:55:15;;;;;;;4.32;2.55;;;;;;;-13.04;59.90;98491.91;4986449;28;20050;-60
2021/12/21 09:57:42;;;;;;;8.45;2.45;;;;;;;-12.97;60.31;98484.69;4989580;28;20473;-60
2021/12/21 10:00:17;;;;;;;7.05;2.35;;;;;;;-12.87;60.76;98490.41;4988106;28;20638;-57
2021/12/21 10:02:44;;;;;;;4.97;2.15;;;;;;;-12.83;59.84;98488.97;4988438;28;20145;-60
2021/12/21 10:05:18;;;;;;;4.70;2.13;;;;;;;-12.80;60.55;98486.69;4989642;28;20109;-57
2021/12/21 10:08:01;;;;;;;2.15;1.40;;;;;;;-12.78;60.53;98478.44;4990398;28;20050;-57
2021/12/21 10:10:36;;;;;;;5.00;2.75;;;;;;;-12.83;59.27;98486.31;4988062;28;20054;-60
2021/12/21 10:13:09;;;;;;;5.03;2.47;;;;;;;-12.87;59.93;98501.13;4991989;28;20132;-59
2021/12/21 10:15:44;;;;;;;1.92;1.45;;;;;;;-12.84;60.42;98490.84;4989041;28;20050;-57
2021/12/21 10:18:13;;;;;;;4.47;2.63;;;;;;;-12.70;60.96;98500.47;4991678;28;20104;-56
2021/12/21 10:20:43;;;;;;;3.92;2.40;;;;;;;-12.66;59.60;98498.19;4987884;28;20085;-56
2021/12/21 10:23:17;;;;;;;4.07;2.63;;;;;;;-12.65;59.47;98495.28;4991153;28;20478;-60
2021/12/21 10:25:59;;;;;;;5.03;3.03;;;;;;;-12.66;59.75;98492.81;4989482;28;20481;-58
2021/12/21 10:28:26;;;;;;;9.18;3.30;;;;;;;-12.93;60.51;98485.91;4988747;28;20046;-57
2021/12/21 10:30:55;;;;;;;3.58;1.85;;;;;;;-12.95;60.68;98493.31;4990732;28;20497;-55
2021/12/21 10:33:24;;;;;;;2.17;1.40;;;;;;;-12.89;60.29;98497.81;4986808;28;20053;-59
2021/12/21 10:35:57;;;;;;;3.10;1.90;;;;;;;-13.06;59.97;98496.69;4986593;28;20112;-58
2021/12/21 10:38:36;;;;;;;10.13;2.40;;;;;;;-13.13;59.50;98491.34;4991823;28;20061;-58
2021/12/21 10:41:11;;;;;;;1.30;1.10;;;;;;;-13.23;59.86;98516.88;4989413;28;20050;-58
2021/12/21 10:43:40;;;;;;;1.58;1.30;;;;;;;-13.24;59.83;98515.22;4992724;28;20054;-59
2021/12/21 10:46:08;;;;;;;2.72;1.73;;;;;;;-13.17;59.95;98516.03;4993327;28;20141;-59
2021/12/21 10:48:37;;;;;;;4.07;2.10;;;;;;;-13.11;59.40;98512.53;4993838;28;20054;-58
2021/12/21 10:51:12;;;;;;;7.07;2.45;;;;;;;-13.06;59.66;98510.84;4992905;28;20077;-53
2021/12/21 10:53:48;;;;;;;3.60;1.27;;;;;;;-13.18;59.59;98509.06;4991308;28;20082;-59
2021/12/21 10:56:18;;;;;;;6.22;2.97;;;;;;;-13.27;59.64;98511.09;4995213;28;20454;-54
2021/12/21 10:58:46;;;;;;;6.35;2.65;;;;;;;-13.22;60.18;98523.84;4991684;28;20058;-56
2021/12/21 11:01:26;;;;;;;4.40;3.17;;;;;;;-13.21;59.56;98514.81;4990026;28;20049;-58
2021/12/21 11:03:56;;;;;;;2.38;1.70;;;;;;;-13.19;59.32;98515.41;4992335;28;20077;-58
2021/12/21 11:06:34;;;;;;;5.05;2.60;;;;;;;-13.22;60.03;98513.16;4985179;28;20046;-55
2021/12/21 11:09:04;;;;;;;6.50;3.80;;;;;;;-13.46;59.41;98521.81;4992152;28;20083;-59
2021/12/21 11:11:37;;;;;;;5.72;2.65;;;;;;;-13.43;59.54;98522.22;4991288;28;20053;-59
2021/12/21 11:14:17;;;;;;;4.13;1.98;;;;;;;-13.38;59.99;98538.47;4992636;28;20137;-59
2021/12/21 11:16:50;;;;;;;3.15;2.20;;;;;;;-13.37;58.86;98536.59;4992764;28;20050;-59
2021/12/21 11:19:20;;;;;;;6.15;3.28;;;;;;;-13.39;59.37;98525.31;4990609;28;20065;-57
2021/12/21 11:21:48;;;;;;;5.10;1.90;;;;;;;-13.48;59.40;98524.69;4992566;28;20535;-59
2021/12/21 11:24:19;;;;;;;7.82;3.10;;;;;;;-13.57;59.87;98529.41;4992040;28;20156;-57
2021/12/21 11:26:49;;;;;;;2.00;1.50;;;;;;;-13.77;59.56;98525.09;4991802;28;20426;-59
2021/12/21 11:29:19;;;;;;;9.40;2.03;;;;;;;-13.89;59.59;98519.50;4991005;28;20509;-62
2021/12/21 11:31:49;;;;;;;1.50;1.13;;;;;;;-13.91;59.60;98518.91;4989786;28;20046;-64
2021/12/21 11:34:21;;;;;;;3.42;1.92;;;;;;;-13.93;59.30;98526.28;4988793;28;20050;-62
2021/12/21 11:39:40;;;;;;;2.08;1.40;;;;;;;-14.02;60.25;98538.19;4985859;28;20072;-63
2021/12/21 11:42:10;;;;;;;5.70;2.45;;;;;;;-13.93;60.10;98545.00;4991517;28;20058;-61
2021/12/21 11:44:52;;;;;;;1.83;1.45;;;;;;;-13.85;60.40;98546.66;4993309;28;20517;-62
2021/12/21 11:47:31;;;;;;;1.23;1.13;;;;;;;-13.89;59.90;98548.91;4993409;28;20050;-63
2021/12/21 11:50:04;;;;;;;8.20;2.90;;;;;;;-13.97;59.96;98546.44;4987363;28;20097;-64
2021/12/21 11:52:49;;;;;;;5.55;2.55;;;;;;;-13.93;60.47;98550.34;4985909;28;20422;-63
2021/12/21 11:55:18;;;;;;;2.30;1.60;;;;;;;-13.92;60.18;98554.66;4987324;28;20055;-60
2021/12/21 11:57:51;;;;;;;1.43;1.27;;;;;;;-13.91;60.47;98558.16;4986182;28;20054;-57
2021/12/21 12:00:29;;;;;;;1.20;1.10;;;;;;;-13.96;59.78;98563.28;4987978;28;20041;-61
2021/12/21 12:03:09;;;;;;;5.28;2.58;;;;;;;-14.06;60.38;98555.66;4984624;28;20043;-59
2021/12/21 12:05:40;;;;;;;1.42;1.17;;;;;;;-14.03;60.45;98557.94;4989242;28;20133;-56
2021/12/21 12:08:12;;;;;;;4.95;1.52;;;;;;;-14.08;60.05;98565.72;4991242;28;20042;-56
2021/12/21 12:10:48;;;;;;;4.20;2.40;;;;;;;-14.12;59.90;98558.31;4988239;28;20059;-65
2021/12/21 12:13:26;;;;;;;2.70;1.77;;;;;;;-14.10;60.17;98577.63;4990150;28;20137;-64
2021/12/21 12:16:05;;;;;;;4.72;2.30;;;;;;;-14.10;59.64;98570.44;4988370;28;20046;-58
2021/12/21 12:18:41;;;;;;;5.28;2.25;;;;;;;-14.15;59.83;98580.88;4989731;28;20050;-55
2021/12/21 12:21:26;;;;;;;1.40;1.30;;;;;;;-14.27;60.03;98587.03;4992134;28;20046;-58
2021/12/21 12:23:56;;;;;;;6.53;2.45;;;;;;;-14.38;59.96;98587.59;4989834;28;20175;-59
2021/12/21 12:26:32;;;;;;;7.67;3.30;;;;;;;-14.31;60.22;98602.63;4991040;28;20133;-59
2021/12/21 12:29:15;;;;;;;6.70;2.45;;;;;;;-14.36;60.06;98606.94;4987095;28;20046;-62
2021/12/21 12:31:47;;;;;;;3.20;2.20;;;;;;;-14.35;60.64;98609.41;4990275;28;20050;-63
2021/12/21 12:34:27;;;;;;;3.17;2.20;;;;;;;-14.38;60.68;98599.13;4989322;28;20046;-62
2021/12/21 12:36:55;;;;;;;4.10;1.80;;;;;;;-14.35;60.77;98608.56;4991790;28;20445;-64
2021/12/21 12:39:38;;;;;;;5.10;2.40;;;;;;;-14.42;61.02;98610.38;4991502;28;20053;-57
2021/12/21 12:42:12;;;;;;;4.35;2.70;;;;;;;-14.38;60.93;98617.81;4988152;28;20053;-57